Time;durP1;ratioP1;P1;durP2;ratioP2;P2;SDS_P1;SDS_P2;PMS_P1;PMS_P2;Temp;Humidity;BMP_temperature;BMP_pressure;BME280_temperature;BME280_humidity;BME280_pressure;Samples;Min_cycle;Max_cycle;Signal;HPM_P1;HPM_P2
2023/02/03 00:01:01;;;;;;;15.38;1.50;;;8.20;99.90;;;;;;5013995;28;20120;-74
2023/02/03 00:03:27;;;;;;;11.25;1.00;;;8.20;99.90;;;;;;5041281;28;20121;-77
2023/02/03 00:05:54;;;;;;;12.23;1.20;;;8.20;99.90;;;;;;5015070;28;20104;-77
2023/02/03 00:08:21;;;;;;;10.77;1.83;;;8.20;99.90;;;;;;5017351;28;20029;-77
2023/02/03 00:10:48;;;;;;;13.52;0.93;;;8.30;99.90;;;;;;5017356;28;20032;-74
2023/02/03 00:13:14;;;;;;;12.00;1.27;;;8.30;99.90;;;;;;5024855;28;20120;-74
2023/02/03 00:15:39;;;;;;;10.32;1.50;;;8.30;99.90;;;;;;5006004;28;20108;-72
2023/02/03 00:18:05;;;;;;;14.20;1.20;;;8.30;99.90;;;;;;5019237;28;20540;-74
2023/02/03 00:20:31;;;;;;;16.20;1.38;;;8.30;99.90;;;;;;5002637;28;20537;-73
2023/02/03 00:23:08;;;;;;;12.95;1.60;;;8.30;99.90;;;;;;5015225;28;20041;-72
2023/02/03 00:25:33;;;;;;;9.52;0.90;;;8.40;99.90;;;;;;5018326;28;20241;-77
2023/02/03 00:27:59;;;;;;;7.45;1.02;;;8.30;99.90;;;;;;5015567;28;20463;-77
2023/02/03 00:30:25;;;;;;;7.63;0.85;;;8.40;99.90;;;;;;5014554;28;20034;-73
2023/02/03 00:32:51;;;;;;;10.10;1.00;;;8.30;99.90;;;;;;5018716;28;20033;-77
2023/02/03 00:35:16;;;;;;;13.45;1.45;;;8.40;99.90;;;;;;5023914;28;20037;-74
2023/02/03 00:37:42;;;;;;;9.63;1.05;;;8.40;99.90;;;;;;5018085;28;20080;-77
2023/02/03 00:40:08;;;;;;;11.88;0.90;;;8.40;99.90;;;;;;5015024;28;20022;-78
2023/02/03 00:42:34;;;;;;;12.27;1.63;;;8.40;99.90;;;;;;5025650;28;20026;-76
2023/02/03 00:45:00;;;;;;;10.43;1.30;;;8.40;99.90;;;;;;5023435;28;20112;-73
2023/02/03 00:47:27;;;;;;;9.50;0.77;;;8.40;99.90;;;;;;5016574;28;20025;-78
2023/02/03 00:49:53;;;;;;;11.98;0.80;;;8.50;99.90;;;;;;5041073;28;20106;-77
2023/02/03 00:52:18;;;;;;;11.25;1.17;;;8.40;99.90;;;;;;5023658;28;20036;-77
2023/02/03 00:54:44;;;;;;;13.05;1.30;;;8.40;99.90;;;;;;5050023;28;20034;-77
2023/02/03 00:57:10;;;;;;;8.73;0.90;;;8.50;99.90;;;;;;5018105;28;20030;-79
2023/02/03 00:59:36;;;;;;;15.10;1.77;;;8.50;99.90;;;;;;5031192;28;20030;-76
2023/02/03 01:02:02;;;;;;;16.25;1.10;;;8.50;99.90;;;;;;5048060;28;20474;-79
2023/02/03 01:04:28;;;;;;;9.70;0.80;;;8.50;99.90;;;;;;5025140;28;20182;-77
2023/02/03 01:06:56;;;;;;;12.68;1.55;;;8.50;99.90;;;;;;5011815;28;20026;-76
2023/02/03 01:09:23;;;;;;;14.43;2.20;;;8.50;99.90;;;;;;5049101;28;20052;-74
2023/02/03 01:11:48;;;;;;;15.10;1.50;;;8.50;99.90;;;;;;5012121;28;20092;-76
2023/02/03 01:14:14;;;;;;;12.02;1.00;;;8.60;99.90;;;;;;5021217;28;20037;-75
2023/02/03 01:16:40;;;;;;;9.68;1.15;;;8.60;99.90;;;;;;5029783;28;20025;-77
2023/02/03 01:19:05;;;;;;;13.07;1.00;;;8.50;99.90;;;;;;5027956;28;20072;-76
2023/02/03 01:21:31;;;;;;;12.38;1.45;;;8.50;99.90;;;;;;5020662;28;20036;-77
2023/02/03 01:23:58;;;;;;;12.57;1.42;;;8.60;99.90;;;;;;5027599;28;20489;-76
2023/02/03 01:26:24;;;;;;;11.18;1.45;;;8.50;99.90;;;;;;5018023;28;20125;-75
2023/02/03 01:28:51;;;;;;;10.38;1.52;;;8.50;99.90;;;;;;5026205;28;20034;-74
2023/02/03 01:31:22;;;;;;;12.27;1.40;;;8.50;99.90;;;;;;5027861;28;20032;-74
2023/02/03 01:33:48;;;;;;;12.52;1.77;;;8.50;99.90;;;;;;5028105;28;20359;-74
2023/02/03 01:36:16;;;;;;;11.48;1.65;;;8.50;99.90;;;;;;5025114;28;20092;-75
2023/02/03 01:38:42;;;;;;;11.50;1.08;;;8.40;99.90;;;;;;5005667;28;20045;-75
2023/02/03 01:41:17;;;;;;;10.15;1.20;;;8.40;99.90;;;;;;5026827;28;20025;-75
2023/02/03 01:43:47;;;;;;;10.65;2.35;;;8.50;99.90;;;;;;5019627;28;20112;-75
2023/02/03 01:46:21;;;;;;;11.57;1.05;;;8.50;99.90;;;;;;5026625;28;20067;-75
2023/02/03 01:48:47;;;;;;;11.90;1.20;;;8.50;99.90;;;;;;5005910;28;20046;-72
2023/02/03 01:51:13;;;;;;;9.00;0.80;;;8.50;99.90;;;;;;5021366;28;20041;-73
2023/02/03 01:53:40;;;;;;;13.27;1.15;;;8.50;99.90;;;;;;5007288;28;20061;-73
2023/02/03 01:56:06;;;;;;;7.72;1.25;;;8.50;99.90;;;;;;5019103;28;20460;-73
2023/02/03 01:58:36;;;;;;;12.27;0.95;;;8.50;99.90;;;;;;5002095;28;20042;-75
2023/02/03 02:01:02;;;;;;;10.07;0.80;;;8.50;99.90;;;;;;5023646;28;20652;-76
2023/02/03 02:03:45;;;;;;;10.80;1.15;;;8.50;99.90;;;;;;5018476;28;20060;-74
2023/02/03 02:06:13;;;;;;;9.95;0.90;;;8.40;99.90;;;;;;5016841;28;20099;-75
2023/02/03 02:08:41;;;;;;;8.70;0.70;;;8.50;99.90;;;;;;5019885;28;20087;-75
2023/02/03 02:11:08;;;;;;;16.73;1.10;;;8.40;99.90;;;;;;5016408;28;20033;-76
2023/02/03 02:13:34;;;;;;;12.95;1.10;;;8.50;99.90;;;;;;5034974;28;20038;-75
2023/02/03 02:16:26;;;;;;;8.48;1.40;;;8.50;99.90;;;;;;5018214;28;20032;-72
2023/02/03 02:19:29;;;;;;;11.80;1.10;;;8.50;99.90;;;;;;5019221;28;20056;-73
2023/02/03 02:22:19;;;;;;;12.40;2.13;;;8.50;99.90;;;;;;5015919;28;20061;-73
2023/02/03 02:24:54;;;;;;;;;;;8.50;99.90;;;;;;5025977;28;20034;-77
2023/02/03 02:27:57;;;;;;;11.43;0.70;;;8.50;99.90;;;;;;5024460;28;19947;-77
2023/02/03 02:30:35;;;;;;;6.95;1.00;;;8.50;99.90;;;;;;5014010;28;20030;-73
2023/02/03 02:33:19;;;;;;;15.38;1.60;;;8.50;99.90;;;;;;5021765;28;20509;-75
2023/02/03 02:36:04;;;;;;;9.52;0.77;;;8.60;99.90;;;;;;5015472;28;20030;-74
2023/02/03 02:39:12;;;;;;;7.32;0.57;;;8.60;99.90;;;;;;5029387;28;20042;-76
2023/02/03 02:41:44;;;;;;;7.63;0.80;;;8.60;99.90;;;;;;5023701;28;20104;-74
2023/02/03 02:44:32;;;;;;;11.43;0.65;;;8.60;99.90;;;;;;5026070;28;20033;-74
2023/02/03 02:47:04;;;;;;;6.13;0.80;;;8.60;99.90;;;;;;5032595;28;20071;-73
2023/02/03 02:49:52;;;;;;;5.90;0.60;;;8.70;99.90;;;;;;5018287;28;20045;-74
2023/02/03 02:52:19;;;;;;;8.82;0.50;;;8.70;99.90;;;;;;5017733;28;20033;-75
2023/02/03 02:54:51;;;;;;;5.70;0.77;;;8.70;99.90;;;;;;5024964;28;20526;-79
2023/02/03 02:57:20;;;;;;;8.15;1.02;;;8.60;99.90;;;;;;5006086;28;20281;-76
2023/02/03 02:59:48;;;;;;;;;;;8.70;99.90;;;;;;5026745;28;20036;-80
2023/02/03 03:02:13;;;;;;;6.53;0.50;;;8.60;99.90;;;;;;5037162;28;20281;-77
2023/02/03 03:04:40;;;;;;;9.02;0.90;;;8.60;99.90;;;;;;5038568;28;20021;-75
2023/02/03 03:07:15;;;;;;;8.68;1.40;;;8.60;99.90;;;;;;5010727;28;20038;-79
2023/02/03 03:09:56;;;;;;;7.90;0.70;;;8.60;99.90;;;;;;5042418;28;20679;-76
2023/02/03 03:12:30;;;;;;;7.95;0.60;;;8.70;99.90;;;;;;5013202;28;20025;-78
2023/02/03 03:15:10;;;;;;;9.45;0.80;;;8.60;99.90;;;;;;5051046;28;20028;-76
2023/02/03 03:17:49;;;;;;;4.50;0.50;;;8.60;99.90;;;;;;5023623;28;20034;-74
2023/02/03 03:20:22;;;;;;;8.45;0.70;;;8.60;99.90;;;;;;5033229;28;20029;-74
2023/02/03 03:23:12;;;;;;;5.35;0.60;;;8.60;99.90;;;;;;5005456;28;20025;-75
2023/02/03 03:25:45;;;;;;;8.35;0.52;;;8.60;99.90;;;;;;5036466;28;20082;-75
2023/02/03 03:28:16;;;;;;;7.78;0.57;;;8.60;99.90;;;;;;5011348;28;20052;-76
2023/02/03 03:30:42;;;;;;;7.28;0.60;;;8.60;99.90;;;;;;5036271;28;20034;-77
2023/02/03 03:33:08;;;;;;;9.70;0.70;;;8.60;99.90;;;;;;5035263;28;20033;-80
2023/02/03 03:36:02;;;;;;;5.53;0.68;;;8.60;99.90;;;;;;5027562;28;20029;-76
2023/02/03 03:39:12;;;;;;;9.52;0.70;;;8.60;99.90;;;;;;5035057;28;20086;-77
2023/02/03 03:42:03;;;;;;;4.18;0.50;;;8.60;99.90;;;;;;5006984;28;20043;-76
2023/02/03 03:44:37;;;;;;;6.22;0.60;;;8.60;99.90;;;;;;5019302;28;20036;-78
2023/02/03 03:47:17;;;;;;;5.57;0.52;;;8.60;99.90;;;;;;5024159;28;20021;-77
2023/02/03 03:49:45;;;;;;;12.10;0.70;;;8.60;99.90;;;;;;5018063;28;20044;-77
2023/02/03 03:52:15;;;;;;;11.13;0.70;;;8.60;99.90;;;;;;5029053;28;20181;-77
2023/02/03 03:54:43;;;;;;;8.00;0.57;;;8.60;99.90;;;;;;5010517;28;20044;-79
2023/02/03 03:57:24;;;;;;;9.00;0.60;;;8.60;99.90;;;;;;5010655;28;20067;-75
2023/02/03 03:59:50;;;;;;;11.73;0.88;;;8.60;99.90;;;;;;5028430;28;20100;-77
2023/02/03 04:02:19;;;;;;;5.57;0.60;;;8.70;99.90;;;;;;5019535;28;20474;-79
2023/02/03 04:04:47;;;;;;;7.40;0.82;;;8.60;99.90;;;;;;5008080;28;20112;-73
2023/02/03 04:07:13;;;;;;;12.45;0.60;;;8.70;99.90;;;;;;5010395;28;20033;-79
2023/02/03 04:09:41;;;;;;;8.32;0.85;;;8.70;99.90;;;;;;5024455;28;20029;-80
2023/02/03 04:12:22;;;;;;;8.00;0.70;;;8.60;99.90;;;;;;5008815;28;20057;-80
2023/02/03 04:14:48;;;;;;;14.82;1.25;;;8.70;99.90;;;;;;5021381;28;20026;-78
2023/02/03 04:17:13;;;;;;;11.88;1.10;;;8.70;99.90;;;;;;5035225;28;20040;-74
2023/02/03 04:19:39;;;;;;;7.45;1.02;;;8.70;99.90;;;;;;5027601;28;20115;-82
2023/02/03 04:22:05;;;;;;;8.07;0.80;;;8.70;99.90;;;;;;5053127;28;20029;-81
2023/02/03 04:24:31;;;;;;;9.23;0.65;;;8.80;99.90;;;;;;5024305;28;20077;-81
2023/02/03 04:26:56;;;;;;;7.22;0.60;;;8.80;99.90;;;;;;5010373;28;20470;-74
2023/02/03 04:29:22;;;;;;;9.00;1.23;;;8.80;99.90;;;;;;5034488;28;20481;-79
2023/02/03 04:31:48;;;;;;;10.70;0.80;;;8.80;99.90;;;;;;5035544;28;20033;-76
2023/02/03 04:34:13;;;;;;;11.52;1.15;;;8.80;99.90;;;;;;5027117;28;20029;-77
2023/02/03 04:36:39;;;;;;;6.47;0.70;;;8.80;99.90;;;;;;5027325;28;20490;-78
2023/02/03 04:39:04;;;;;;;5.95;0.68;;;8.80;99.90;;;;;;5035046;28;20441;-76
2023/02/03 04:41:30;;;;;;;9.27;0.60;;;8.90;99.90;;;;;;5020306;28;20026;-80
2023/02/03 04:43:56;;;;;;;6.85;0.50;;;8.90;99.90;;;;;;5024667;28;20025;-77
2023/02/03 04:46:21;;;;;;;7.68;0.70;;;8.90;99.90;;;;;;5024451;28;20510;-78
2023/02/03 04:48:47;;;;;;;4.50;0.60;;;8.80;99.90;;;;;;5021840;28;20047;-78
2023/02/03 04:51:13;;;;;;;10.80;0.50;;;8.80;99.90;;;;;;5018262;28;20025;-76
2023/02/03 04:53:38;;;;;;;10.18;0.50;;;8.90;99.90;;;;;;5033661;28;20394;-76
2023/02/03 04:56:04;;;;;;;7.28;0.50;;;8.90;99.90;;;;;;5033479;28;20049;-76
2023/02/03 04:58:30;;;;;;;8.43;1.13;;;8.80;99.90;;;;;;5001504;28;20119;-79
2023/02/03 05:00:56;;;;;;;5.05;0.40;;;8.90;99.90;;;;;;5022643;28;20466;-75
2023/02/03 05:03:22;;;;;;;7.70;0.52;;;8.80;99.90;;;;;;5051980;28;20052;-77
2023/02/03 05:05:49;;;;;;;8.07;0.50;;;8.80;99.90;;;;;;5019508;28;20047;-78
2023/02/03 05:08:15;;;;;;;5.03;0.50;;;8.80;99.90;;;;;;5028961;28;20077;-76
2023/02/03 05:10:40;;;;;;;7.38;0.50;;;8.70;99.90;;;;;;5018456;28;20474;-75
2023/02/03 05:13:06;;;;;;;11.15;0.50;;;8.80;99.90;;;;;;5021375;28;20026;-78
2023/02/03 05:15:32;;;;;;;10.77;0.43;;;8.80;99.90;;;;;;5022710;28;20022;-76
2023/02/03 05:17:57;;;;;;;6.32;0.50;;;8.80;99.90;;;;;;5050989;28;20474;-79
2023/02/03 05:20:23;;;;;;;6.35;0.60;;;8.80;99.90;;;;;;5024609;28;20024;-79
2023/02/03 05:22:49;;;;;;;7.82;0.40;;;8.80;99.90;;;;;;5028869;28;20025;-79
2023/02/03 05:25:14;;;;;;;14.73;0.85;;;8.80;99.90;;;;;;5023312;28;20156;-77
2023/02/03 05:27:41;;;;;;;8.55;0.60;;;8.80;99.90;;;;;;5027788;28;20026;-78
2023/02/03 05:30:08;;;;;;;8.75;0.75;;;8.80;99.90;;;;;;5019746;28;20468;-79
2023/02/03 05:32:34;;;;;;;8.07;0.52;;;8.80;99.90;;;;;;5018656;28;20022;-75
2023/02/03 05:34:59;;;;;;;11.00;1.02;;;8.80;99.90;;;;;;5018157;28;20028;-77
2023/02/03 05:37:25;;;;;;;8.65;0.70;;;8.80;99.90;;;;;;5020740;28;20022;-76
2023/02/03 05:39:51;;;;;;;7.63;0.43;;;8.80;99.90;;;;;;5004002;28;20033;-76
2023/02/03 05:42:16;;;;;;;6.55;0.50;;;8.80;99.90;;;;;;5026985;28;20026;-78
2023/02/03 05:44:42;;;;;;;4.30;0.43;;;8.90;99.90;;;;;;5021035;28;20040;-77
2023/02/03 05:47:08;;;;;;;8.30;0.50;;;8.80;99.90;;;;;;5007644;28;20065;-76
2023/02/03 05:49:33;;;;;;;5.20;0.40;;;8.80;99.90;;;;;;5020740;28;20112;-79
2023/02/03 05:51:59;;;;;;;10.05;0.73;;;8.80;99.90;;;;;;5019950;28;20032;-77
2023/02/03 05:54:25;;;;;;;3.55;0.40;;;8.80;99.90;;;;;;5026990;28;20037;-76
2023/02/03 05:56:51;;;;;;;7.22;0.60;;;8.70;99.90;;;;;;4998890;28;20033;-76
2023/02/03 05:59:16;;;;;;;8.38;1.02;;;8.80;99.90;;;;;;5025096;28;20507;-77
2023/02/03 06:01:42;;;;;;;10.75;0.60;;;8.80;99.90;;;;;;5005251;28;20028;-75
2023/02/03 06:04:08;;;;;;;8.13;0.60;;;8.70;99.90;;;;;;5019601;28;20112;-78
2023/02/03 06:06:34;;;;;;;6.80;0.45;;;8.70;99.90;;;;;;5025513;28;20033;-76
2023/02/03 06:09:01;;;;;;;9.25;0.50;;;8.70;99.90;;;;;;5016561;28;20058;-79
2023/02/03 06:11:27;;;;;;;7.53;0.70;;;8.70;99.90;;;;;;4999290;28;20022;-79
2023/02/03 06:13:54;;;;;;;8.30;0.50;;;8.70;99.90;;;;;;5017021;28;20049;-78
2023/02/03 06:16:21;;;;;;;5.82;0.60;;;8.70;99.90;;;;;;5019845;28;20088;-80
2023/02/03 06:18:46;;;;;;;8.55;0.73;;;8.70;99.90;;;;;;5018507;28;20049;-80
2023/02/03 06:21:12;;;;;;;7.20;0.70;;;8.70;99.90;;;;;;5026500;28;20023;-76
2023/02/03 06:23:38;;;;;;;8.02;0.80;;;8.80;99.90;;;;;;5020880;28;20303;-76
2023/02/03 06:26:04;;;;;;;7.55;0.50;;;8.70;99.90;;;;;;5020511;28;20258;-79
2023/02/03 06:28:32;;;;;;;7.85;0.57;;;8.80;99.90;;;;;;5018342;28;20033;-76
2023/02/03 06:30:58;;;;;;;12.68;0.90;;;8.70;99.90;;;;;;5018887;28;20026;-77
2023/02/03 06:33:23;;;;;;;9.20;1.25;;;8.70;99.90;;;;;;5016469;28;20099;-76
2023/02/03 06:35:49;;;;;;;8.68;0.60;;;8.70;99.90;;;;;;5018070;28;20057;-78
2023/02/03 06:38:15;;;;;;;8.43;0.70;;;8.70;99.90;;;;;;5025091;28;20152;-80
2023/02/03 06:40:40;;;;;;;8.93;0.70;;;8.70;99.90;;;;;;5016091;28;20022;-80
2023/02/03 06:43:06;;;;;;;9.77;1.95;;;8.60;99.90;;;;;;5017680;28;20084;-76
2023/02/03 06:45:33;;;;;;;9.20;0.77;;;8.60;99.90;;;;;;5018091;28;20022;-81
2023/02/03 06:47:59;;;;;;;7.53;1.20;;;8.60;99.90;;;;;;5018837;28;20061;-76
2023/02/03 06:50:24;;;;;;;8.95;0.73;;;8.60;99.90;;;;;;5043211;28;20063;-81
2023/02/03 06:52:50;;;;;;;7.88;0.70;;;8.60;99.90;;;;;;5037376;28;20036;-79
2023/02/03 06:55:15;;;;;;;8.77;0.70;;;8.60;99.90;;;;;;5044995;28;20029;-79
2023/02/03 06:57:46;;;;;;;10.75;1.40;;;8.60;99.90;;;;;;5022339;28;20040;-80
2023/02/03 07:00:13;;;;;;;10.77;0.88;;;8.70;99.90;;;;;;5036708;28;20029;-77
2023/02/03 07:02:39;;;;;;;10.13;0.90;;;8.60;99.90;;;;;;5022519;28;20025;-75
2023/02/03 07:05:06;;;;;;;19.52;2.08;;;8.70;99.90;;;;;;4995123;28;20506;-75
2023/02/03 07:07:32;;;;;;;11.60;0.98;;;8.70;99.90;;;;;;5015404;28;20036;-77
2023/02/03 07:09:59;;;;;;;6.60;0.93;;;8.70;99.90;;;;;;5025628;28;20411;-75
2023/02/03 07:12:25;;;;;;;9.65;1.17;;;8.60;99.90;;;;;;5007032;28;20393;-82
2023/02/03 07:14:51;;;;;;;8.82;0.90;;;8.70;99.90;;;;;;5052986;28;20032;-75
2023/02/03 07:17:16;;;;;;;11.10;0.95;;;8.60;99.90;;;;;;5037847;28;20021;-76
2023/02/03 07:19:42;;;;;;;10.98;1.20;;;8.60;99.90;;;;;;5041217;28;20497;-80
2023/02/03 07:22:11;;;;;;;10.10;1.45;;;8.60;99.90;;;;;;5024074;28;20528;-77
2023/02/03 07:24:37;;;;;;;13.23;1.33;;;8.70;99.90;;;;;;5043692;28;20041;-78
2023/02/03 07:27:03;;;;;;;15.63;1.10;;;8.60;99.90;;;;;;5026326;28;20092;-74
2023/02/03 07:29:28;;;;;;;10.85;0.90;;;8.60;99.90;;;;;;5020732;28;20132;-78
2023/02/03 07:31:54;;;;;;;8.30;1.10;;;8.60;99.90;;;;;;5021465;28;20032;-77
2023/02/03 07:34:20;;;;;;;8.95;1.05;;;8.60;99.90;;;;;;5007989;28;20024;-75
2023/02/03 07:36:46;;;;;;;11.35;1.75;;;8.60;99.90;;;;;;5041533;28;20049;-76
2023/02/03 07:39:11;;;;;;;9.38;0.80;;;8.60;99.90;;;;;;5020619;28;20060;-76
2023/02/03 07:41:37;;;;;;;7.18;0.98;;;8.50;99.90;;;;;;5018256;28;20359;-74
2023/02/03 07:44:07;;;;;;;10.45;1.13;;;8.50;99.90;;;;;;5049284;28;20459;-75
2023/02/03 07:46:33;;;;;;;9.07;0.77;;;8.50;99.90;;;;;;5020061;28;20024;-74
2023/02/03 07:48:59;;;;;;;6.07;1.50;;;8.50;99.90;;;;;;5007166;28;20045;-77
2023/02/03 07:51:25;;;;;;;9.93;0.70;;;8.50;99.90;;;;;;5035968;28;20119;-75
2023/02/03 07:53:51;;;;;;;8.23;0.80;;;8.50;99.90;;;;;;5049742;28;20111;-81
2023/02/03 07:56:19;;;;;;;8.38;0.90;;;8.50;99.90;;;;;;5049288;28;20030;-76
2023/02/03 07:58:44;;;;;;;10.40;1.00;;;8.50;99.90;;;;;;5024519;28;20037;-75
2023/02/03 08:01:13;;;;;;;9.82;0.90;;;8.50;99.90;;;;;;5033476;28;20325;-77
2023/02/03 08:03:39;;;;;;;13.45;1.35;;;8.60;99.90;;;;;;5011711;28;20032;-77
2023/02/03 08:06:06;;;;;;;10.98;1.02;;;8.60;99.90;;;;;;5034605;28;20017;-75
2023/02/03 08:08:31;;;;;;;8.75;0.98;;;8.60;99.90;;;;;;5019294;28;20039;-76
2023/02/03 08:10:57;;;;;;;11.77;0.93;;;8.60;99.90;;;;;;5021226;28;20062;-77
2023/02/03 08:13:23;;;;;;;7.68;1.10;;;8.60;99.90;;;;;;5016668;28;20021;-75
2023/02/03 08:15:48;;;;;;;14.23;1.20;;;8.60;99.90;;;;;;5025120;28;20503;-77
2023/02/03 08:18:14;;;;;;;9.40;0.90;;;8.60;99.90;;;;;;5034445;28;20118;-80
2023/02/03 08:20:40;;;;;;;9.13;0.90;;;8.60;99.90;;;;;;5037421;28;20025;-77
2023/02/03 08:23:06;;;;;;;12.10;1.38;;;8.60;99.90;;;;;;5020848;28;20068;-78
2023/02/03 08:25:32;;;;;;;15.25;1.17;;;8.60;99.90;;;;;;5024580;28;20071;-79
2023/02/03 08:27:57;;;;;;;9.73;0.80;;;8.60;99.90;;;;;;5038783;28;20021;-80
2023/02/03 08:30:24;;;;;;;9.73;1.00;;;8.60;99.90;;;;;;5042679;28;20021;-77
2023/02/03 08:32:50;;;;;;;8.40;1.15;;;8.60;99.90;;;;;;5020912;28;20510;-76
2023/02/03 08:35:16;;;;;;;7.70;0.75;;;8.60;99.90;;;;;;5055175;28;20033;-77
2023/02/03 08:37:42;;;;;;;12.93;1.35;;;8.70;99.90;;;;;;5010354;28;20127;-79
2023/02/03 08:40:09;;;;;;;13.02;0.98;;;8.70;99.90;;;;;;5040535;28;20025;-76
2023/02/03 08:42:35;;;;;;;18.23;2.15;;;8.60;99.90;;;;;;5022555;28;20036;-79
2023/02/03 08:45:00;;;;;;;12.25;1.67;;;8.70;99.90;;;;;;5014219;28;20025;-76
2023/02/03 08:47:26;;;;;;;7.05;0.80;;;8.70;99.90;;;;;;5039452;28;20393;-77
2023/02/03 08:49:52;;;;;;;9.50;0.82;;;8.70;99.90;;;;;;5037934;28;20048;-79
2023/02/03 08:52:18;;;;;;;9.77;0.90;;;8.70;99.90;;;;;;5023513;28;20036;-77
2023/02/03 08:54:44;;;;;;;7.57;1.00;;;8.70;99.90;;;;;;5027591;28;20029;-76
2023/02/03 08:57:10;;;;;;;12.30;1.00;;;8.70;99.90;;;;;;5053676;28;20398;-77
2023/02/03 08:59:41;;;;;;;7.95;1.30;;;8.70;99.90;;;;;;5057388;28;20057;-76
2023/02/03 09:02:13;;;;;;;9.68;0.80;;;8.70;99.90;;;;;;5031327;28;20289;-80
2023/02/03 09:04:38;;;;;;;10.45;0.70;;;8.80;99.90;;;;;;5058627;28;20083;-77
2023/02/03 09:07:04;;;;;;;8.98;1.25;;;8.80;99.90;;;;;;5003085;28;20218;-76
2023/02/03 09:09:30;;;;;;;10.93;0.93;;;8.80;99.90;;;;;;5029743;28;20017;-76
2023/02/03 09:12:00;;;;;;;7.47;0.70;;;8.80;99.90;;;;;;5040026;28;20079;-77
2023/02/03 09:14:33;;;;;;;;;;;8.80;99.90;;;;;;5024385;28;20363;-75
2023/02/03 09:17:00;;;;;;;9.15;0.90;;;8.90;99.90;;;;;;5036177;28;19916;-75
2023/02/03 09:19:26;;;;;;;11.13;1.23;;;8.90;99.90;;;;;;5013962;28;20072;-78
2023/02/03 09:21:52;;;;;;;8.82;0.90;;;8.90;99.90;;;;;;5038840;28;20435;-76
2023/02/03 09:24:17;;;;;;;10.07;0.98;;;8.90;99.90;;;;;;5042474;28;20037;-76
2023/02/03 09:26:44;;;;;;;7.80;0.88;;;8.90;99.90;;;;;;5025877;28;20112;-76
2023/02/03 09:29:10;;;;;;;9.38;0.80;;;8.90;99.90;;;;;;5039681;28;20037;-79
2023/02/03 09:31:35;;;;;;;11.75;1.13;;;8.90;99.90;;;;;;5025155;28;20613;-81
2023/02/03 09:34:03;;;;;;;10.45;0.80;;;9.00;99.90;;;;;;5012372;28;20087;-77
2023/02/03 09:36:29;;;;;;;6.32;0.77;;;9.00;99.90;;;;;;5020923;28;20025;-81
2023/02/03 09:38:56;;;;;;;10.07;1.13;;;9.00;99.90;;;;;;5004322;28;20041;-78
2023/02/03 09:41:44;;;;;;;10.27;0.70;;;9.00;99.90;;;;;;5039861;28;20038;-77
2023/02/03 09:44:27;;;;;;;11.95;1.23;;;9.00;99.90;;;;;;5009132;28;20052;-77
2023/02/03 09:46:59;;;;;;;8.55;1.08;;;9.00;99.90;;;;;;5021467;28;20029;-77
2023/02/03 09:49:32;;;;;;;9.07;0.90;;;9.00;99.90;;;;;;5020287;28;20052;-77
2023/02/03 09:52:10;;;;;;;9.30;0.80;;;9.00;99.90;;;;;;5029501;28;20025;-76
2023/02/03 09:54:48;;;;;;;7.50;0.65;;;9.00;99.90;;;;;;5029075;28;20029;-78
2023/02/03 09:57:24;;;;;;;13.35;1.33;;;9.00;99.90;;;;;;5052124;28;20025;-77
2023/02/03 09:59:50;;;;;;;8.60;0.73;;;9.00;99.90;;;;;;5036621;28;20117;-77
2023/02/03 10:02:34;;;;;;;10.65;1.02;;;9.00;99.90;;;;;;5027647;28;20085;-76
2023/02/03 10:05:31;;;;;;;10.82;1.30;;;9.00;99.90;;;;;;5025651;28;20370;-78
2023/02/03 10:08:06;;;;;;;11.63;1.10;;;9.10;99.90;;;;;;5008077;28;20024;-78
2023/02/03 10:10:47;;;;;;;7.43;1.50;;;9.10;99.90;;;;;;5039608;28;20032;-77
2023/02/03 10:13:25;;;;;;;10.40;1.00;;;9.00;99.90;;;;;;5025841;28;20062;-76
2023/02/03 10:15:56;;;;;;;9.85;1.02;;;9.10;99.90;;;;;;5027651;28;20025;-78
2023/02/03 10:18:29;;;;;;;9.85;0.93;;;9.00;99.90;;;;;;5023352;28;20051;-78
2023/02/03 10:21:12;;;;;;;10.50;1.13;;;9.10;99.90;;;;;;5010229;28;20410;-80
2023/02/03 10:23:40;;;;;;;12.05;1.65;;;9.10;99.90;;;;;;5018788;28;20120;-75
2023/02/03 10:26:13;;;;;;;9.73;1.10;;;9.10;99.90;;;;;;5037288;28;20035;-76
2023/02/03 10:28:46;;;;;;;10.77;0.90;;;9.10;99.90;;;;;;5038225;28;20101;-77
2023/02/03 10:31:18;;;;;;;11.88;1.25;;;9.10;99.90;;;;;;5026808;28;20428;-76
2023/02/03 10:33:43;;;;;;;9.93;1.58;;;9.10;99.90;;;;;;5003681;28;20496;-75
2023/02/03 10:36:30;;;;;;;8.88;1.05;;;9.10;99.90;;;;;;5028112;28;20454;-76
2023/02/03 10:39:02;;;;;;;10.23;1.20;;;9.10;99.90;;;;;;5011074;28;20073;-77
2023/02/03 10:41:30;;;;;;;10.68;1.00;;;9.20;99.90;;;;;;5004255;28;20029;-77
2023/02/03 10:43:57;;;;;;;9.60;0.80;;;9.20;99.90;;;;;;5036113;28;20033;-76
2023/02/03 10:46:32;;;;;;;7.85;0.80;;;9.20;99.90;;;;;;5028924;28;20032;-77
2023/02/03 10:48:58;;;;;;;8.13;0.80;;;9.20;99.90;;;;;;5028568;28;20095;-77
2023/02/03 10:51:26;;;;;;;13.05;0.90;;;9.30;99.90;;;;;;5043159;28;20490;-77
2023/02/03 10:53:52;;;;;;;7.65;0.70;;;9.40;99.90;;;;;;5011702;28;20029;-77
2023/02/03 10:56:35;;;;;;;8.32;1.15;;;9.40;99.90;;;;;;5039575;28;20032;-78
2023/02/03 10:59:01;;;;;;;7.63;0.60;;;9.50;99.90;;;;;;5004008;28;20737;-78
2023/02/03 11:01:39;;;;;;;8.13;0.50;;;9.50;99.90;;;;;;5009416;28;20013;-76
2023/02/03 11:04:21;;;;;;;7.22;0.65;;;9.60;99.90;;;;;;5037744;28;20078;-78
2023/02/03 11:07:22;;;;;;;11.85;0.90;;;9.50;99.90;;;;;;5027365;28;20021;-78
2023/02/03 11:09:47;;;;;;;6.57;0.60;;;9.60;99.90;;;;;;5034203;28;20100;-76
2023/02/03 11:12:18;;;;;;;11.98;0.75;;;9.60;99.90;;;;;;5011737;28;20117;-78
2023/02/03 11:14:50;;;;;;;9.65;0.98;;;9.70;99.90;;;;;;5031982;28;20068;-77
2023/02/03 11:17:17;;;;;;;10.73;0.82;;;9.70;99.90;;;;;;5022794;28;20116;-78
2023/02/03 11:19:45;;;;;;;9.07;0.93;;;9.70;99.90;;;;;;5006860;28;20083;-77
2023/02/03 11:22:32;;;;;;;8.10;0.95;;;9.70;99.90;;;;;;5038836;28;20116;-76
2023/02/03 11:25:00;;;;;;;5.82;0.65;;;9.70;99.90;;;;;;5016735;28;20045;-77
2023/02/03 11:27:29;;;;;;;9.23;1.10;;;9.80;99.90;;;;;;5023541;28;20025;-76
2023/02/03 11:30:12;;;;;;;6.95;0.88;;;9.90;99.90;;;;;;5027097;28;20112;-78
2023/02/03 11:32:41;;;;;;;7.65;0.60;;;9.90;99.90;;;;;;5037578;28;20021;-77
2023/02/03 11:35:17;;;;;;;7.72;0.75;;;9.90;99.90;;;;;;5018199;28;20033;-80
2023/02/03 11:37:51;;;;;;;5.28;0.82;;;9.90;99.90;;;;;;5027732;28;20075;-77
2023/02/03 11:40:20;;;;;;;4.40;1.05;;;10.00;99.90;;;;;;5041880;28;20028;-78
2023/02/03 11:42:48;;;;;;;11.07;2.08;;;10.10;99.90;;;;;;5028774;28;20030;-76
2023/02/03 11:45:24;;;;;;;8.60;0.90;;;10.20;99.90;;;;;;5036910;28;20032;-75
2023/02/03 11:48:02;;;;;;;8.82;0.70;;;10.20;99.90;;;;;;5039774;28;20393;-77
2023/02/03 11:50:53;;;;;;;3.88;0.80;;;10.20;99.90;;;;;;5033865;28;20037;-78
2023/02/03 11:53:48;;;;;;;8.90;0.93;;;10.20;99.90;;;;;;5035832;28;20490;-77
2023/02/03 11:56:32;;;;;;;7.38;0.60;;;10.30;99.90;;;;;;5036641;28;20033;-77
2023/02/03 11:59:19;;;;;;;6.72;0.60;;;10.30;99.90;;;;;;5035052;28;20454;-80
2023/02/03 12:02:40;;;;;;;8.68;0.82;;;10.40;99.90;;;;;;5018564;28;20029;-76
2023/02/03 12:05:33;;;;;;;5.45;0.75;;;10.40;99.90;;;;;;4964554;28;20121;-76
2023/02/03 12:08:04;;;;;;;6.47;0.73;;;10.40;99.90;;;;;;4965718;28;20129;-75
2023/02/03 12:10:33;;;;;;;7.22;1.00;;;10.40;99.90;;;;;;4982172;28;20047;-77
2023/02/03 12:13:13;;;;;;;8.77;1.17;;;10.50;99.90;;;;;;4965510;28;20034;-77
2023/02/03 12:16:02;;;;;;;6.32;0.70;;;10.50;99.90;;;;;;4965428;28;21036;-76
2023/02/03 12:19:08;;;;;;;6.68;1.00;;;10.50;99.90;;;;;;4966680;28;20063;-77
2023/02/03 12:21:52;;;;;;;5.65;0.70;;;10.50;99.90;;;;;;4965796;28;20035;-77
2023/02/03 12:24:24;;;;;;;4.15;0.60;;;10.50;99.90;;;;;;4933936;28;20082;-76
2023/02/03 12:27:15;;;;;;;6.97;0.70;;;10.50;99.90;;;;;;4948732;28;20125;-76
2023/02/03 12:29:45;;;;;;;6.90;1.17;;;10.50;99.90;;;;;;4965474;28;20061;-78
2023/02/03 12:32:16;;;;;;;6.25;0.43;;;10.50;99.90;;;;;;4965149;28;20034;-77
2023/02/03 12:35:31;;;;;;;5.55;0.60;;;10.50;99.90;;;;;;4953123;28;20121;-77
2023/02/03 12:38:20;;;;;;;9.13;0.70;;;10.50;99.90;;;;;;4941981;28;20050;-78
2023/02/03 12:40:57;;;;;;;7.35;0.60;;;10.30;99.90;;;;;;4982791;28;20132;-76
2023/02/03 12:43:28;;;;;;;8.93;1.08;;;10.20;99.90;;;;;;5022177;28;20025;-76
2023/02/03 12:46:03;;;;;;;6.45;1.10;;;10.00;99.90;;;;;;5021954;28;20067;-77
2023/02/03 12:48:42;;;;;;;5.53;0.70;;;9.90;99.90;;;;;;5034654;28;20091;-76
2023/02/03 12:51:15;;;;;;;7.85;0.80;;;9.70;99.90;;;;;;5021298;28;20036;-77
2023/02/03 12:53:49;;;;;;;7.53;0.70;;;9.70;99.90;;;;;;5035452;28;20093;-75
2023/02/03 12:56:22;;;;;;;7.47;0.80;;;9.60;99.90;;;;;;5017514;28;20022;-74
2023/02/03 12:58:51;;;;;;;8.52;1.05;;;9.50;99.90;;;;;;5032833;28;20076;-76
2023/02/03 13:01:22;;;;;;;8.55;0.88;;;9.50;99.90;;;;;;5026047;28;20413;-76
2023/02/03 13:04:02;;;;;;;9.32;1.27;;;9.40;99.90;;;;;;5035025;28;20033;-76
2023/02/03 13:07:00;;;;;;;8.20;0.80;;;9.30;99.90;;;;;;5037648;28;20647;-75
2023/02/03 13:09:48;;;;;;;11.25;1.13;;;9.10;99.90;;;;;;5012170;28;20040;-79
2023/02/03 13:12:34;;;;;;;14.93;1.38;;;9.10;99.90;;;;;;5041134;28;20029;-76